sensor_id;sensor_type;location;lat;lon;timestamp;P1;durP1;ratioP1;P2;durP2;ratioP2
80481;SDS011;69797;43.864;21.410;2023-05-07T00:00:39;7.03;;;3.92;;
80481;SDS011;69797;43.864;21.410;2023-05-07T00:03:11;6.80;;;4.13;;
80481;SDS011;69797;43.864;21.410;2023-05-07T00:05:39;8.35;;;4.55;;
80481;SDS011;69797;43.864;21.410;2023-05-07T00:08:06;8.80;;;4.55;;
80481;SDS011;69797;43.864;21.410;2023-05-07T00:10:33;7.23;;;4.07;;
80481;SDS011;69797;43.864;21.410;2023-05-07T00:12:59;9.32;;;5.50;;
80481;SDS011;69797;43.864;21.410;2023-05-07T00:15:26;7.22;;;4.00;;
80481;SDS011;69797;43.864;21.410;2023-05-07T00:17:55;7.90;;;4.65;;
80481;SDS011;69797;43.864;21.410;2023-05-07T00:20:22;8.30;;;4.28;;
80481;SDS011;69797;43.864;21.410;2023-05-07T00:22:48;6.93;;;4.20;;
80481;SDS011;69797;43.864;21.410;2023-05-07T00:25:15;10.23;;;4.03;;
80481;SDS011;69797;43.864;21.410;2023-05-07T00:27:42;6.63;;;3.63;;
80481;SDS011;69797;43.864;21.410;2023-05-07T00:30:10;6.60;;;3.95;;
80481;SDS011;69797;43.864;21.410;2023-05-07T00:32:37;6.20;;;4.32;;
80481;SDS011;69797;43.864;21.410;2023-05-07T00:35:05;6.07;;;4.00;;
80481;SDS011;69797;43.864;21.410;2023-05-07T00:37:32;7.50;;;4.20;;
80481;SDS011;69797;43.864;21.410;2023-05-07T00:39:59;11.43;;;4.93;;
80481;SDS011;69797;43.864;21.410;2023-05-07T00:42:26;8.70;;;4.95;;
80481;SDS011;69797;43.864;21.410;2023-05-07T00:44:54;11.52;;;5.90;;
80481;SDS011;69797;43.864;21.410;2023-05-07T00:47:21;9.47;;;4.80;;
80481;SDS011;69797;43.864;21.410;2023-05-07T00:49:48;7.38;;;4.45;;
80481;SDS011;69797;43.864;21.410;2023-05-07T00:52:15;8.80;;;4.57;;
80481;SDS011;69797;43.864;21.410;2023-05-07T00:54:43;11.30;;;5.80;;
80481;SDS011;69797;43.864;21.410;2023-05-07T00:57:13;9.73;;;6.15;;
80481;SDS011;69797;43.864;21.410;2023-05-07T00:59:41;10.43;;;5.53;;
80481;SDS011;69797;43.864;21.410;2023-05-07T01:02:08;10.23;;;5.47;;
80481;SDS011;69797;43.864;21.410;2023-05-07T01:04:35;9.15;;;5.72;;
80481;SDS011;69797;43.864;21.410;2023-05-07T01:07:03;9.82;;;5.60;;
80481;SDS011;69797;43.864;21.410;2023-05-07T01:09:31;7.88;;;4.90;;
80481;SDS011;69797;43.864;21.410;2023-05-07T01:11:58;8.10;;;5.17;;
80481;SDS011;69797;43.864;21.410;2023-05-07T01:14:25;9.15;;;4.90;;
80481;SDS011;69797;43.864;21.410;2023-05-07T01:16:53;9.13;;;4.90;;
80481;SDS011;69797;43.864;21.410;2023-05-07T01:19:20;7.80;;;5.03;;
80481;SDS011;69797;43.864;21.410;2023-05-07T01:21:47;7.90;;;4.78;;
80481;SDS011;69797;43.864;21.410;2023-05-07T01:24:15;8.30;;;4.60;;
80481;SDS011;69797;43.864;21.410;2023-05-07T01:26:43;8.23;;;4.78;;
80481;SDS011;69797;43.864;21.410;2023-05-07T01:29:11;10.77;;;5.38;;
80481;SDS011;69797;43.864;21.410;2023-05-07T01:31:38;11.35;;;4.65;;
80481;SDS011;69797;43.864;21.410;2023-05-07T01:34:08;11.55;;;4.90;;
80481;SDS011;69797;43.864;21.410;2023-05-07T01:36:38;10.40;;;4.93;;
80481;SDS011;69797;43.864;21.410;2023-05-07T01:39:06;6.72;;;4.85;;
80481;SDS011;69797;43.864;21.410;2023-05-07T01:41:35;8.52;;;4.63;;
80481;SDS011;69797;43.864;21.410;2023-05-07T01:44:02;7.45;;;4.90;;
80481;SDS011;69797;43.864;21.410;2023-05-07T01:46:30;7.43;;;4.65;;
80481;SDS011;69797;43.864;21.410;2023-05-07T01:48:57;7.87;;;5.63;;
80481;SDS011;69797;43.864;21.410;2023-05-07T01:51:25;7.25;;;4.53;;
80481;SDS011;69797;43.864;21.410;2023-05-07T01:53:52;7.35;;;4.90;;
80481;SDS011;69797;43.864;21.410;2023-05-07T01:56:19;7.10;;;4.85;;
80481;SDS011;69797;43.864;21.410;2023-05-07T01:58:47;6.65;;;4.22;;
80481;SDS011;69797;43.864;21.410;2023-05-07T02:01:14;11.30;;;4.50;;
80481;SDS011;69797;43.864;21.410;2023-05-07T02:03:41;7.75;;;4.15;;
80481;SDS011;69797;43.864;21.410;2023-05-07T02:06:08;8.05;;;4.50;;
80481;SDS011;69797;43.864;21.410;2023-05-07T02:08:35;8.90;;;4.13;;
80481;SDS011;69797;43.864;21.410;2023-05-07T02:11:02;7.47;;;3.97;;
80481;SDS011;69797;43.864;21.410;2023-05-07T02:13:29;6.37;;;4.10;;
80481;SDS011;69797;43.864;21.410;2023-05-07T02:15:58;6.32;;;4.15;;
80481;SDS011;69797;43.864;21.410;2023-05-07T02:18:25;7.18;;;4.35;;
80481;SDS011;69797;43.864;21.410;2023-05-07T02:20:51;9.13;;;4.38;;
80481;SDS011;69797;43.864;21.410;2023-05-07T02:23:18;7.25;;;4.30;;
80481;SDS011;69797;43.864;21.410;2023-05-07T02:25:45;7.93;;;3.67;;
80481;SDS011;69797;43.864;21.410;2023-05-07T02:28:13;5.90;;;4.00;;
80481;SDS011;69797;43.864;21.410;2023-05-07T02:30:40;8.05;;;4.25;;
80481;SDS011;69797;43.864;21.410;2023-05-07T02:33:07;10.27;;;4.13;;
80481;SDS011;69797;43.864;21.410;2023-05-07T02:35:35;7.07;;;4.35;;
80481;SDS011;69797;43.864;21.410;2023-05-07T02:38:01;8.00;;;4.40;;
80481;SDS011;69797;43.864;21.410;2023-05-07T02:40:29;6.50;;;4.10;;
80481;SDS011;69797;43.864;21.410;2023-05-07T02:42:55;7.63;;;3.95;;
80481;SDS011;69797;43.864;21.410;2023-05-07T02:45:22;7.93;;;4.63;;
80481;SDS011;69797;43.864;21.410;2023-05-07T02:47:49;6.45;;;4.18;;
80481;SDS011;69797;43.864;21.410;2023-05-07T02:50:16;7.97;;;4.30;;
80481;SDS011;69797;43.864;21.410;2023-05-07T02:52:45;6.40;;;3.90;;
80481;SDS011;69797;43.864;21.410;2023-05-07T02:55:13;7.00;;;4.30;;
80481;SDS011;69797;43.864;21.410;2023-05-07T02:57:39;6.03;;;3.85;;
80481;SDS011;69797;43.864;21.410;2023-05-07T03:00:13;6.75;;;4.30;;
80481;SDS011;69797;43.864;21.410;2023-05-07T03:02:44;6.17;;;4.30;;
80481;SDS011;69797;43.864;21.410;2023-05-07T03:05:11;7.20;;;4.30;;
80481;SDS011;69797;43.864;21.410;2023-05-07T03:07:38;6.57;;;4.07;;
80481;SDS011;69797;43.864;21.410;2023-05-07T03:10:05;6.38;;;4.28;;
80481;SDS011;69797;43.864;21.410;2023-05-07T03:12:32;9.25;;;4.25;;
80481;SDS011;69797;43.864;21.410;2023-05-07T03:14:59;6.87;;;4.37;;
80481;SDS011;69797;43.864;21.410;2023-05-07T03:17:26;7.05;;;4.40;;
80481;SDS011;69797;43.864;21.410;2023-05-07T03:19:52;9.73;;;4.28;;
80481;SDS011;69797;43.864;21.410;2023-05-07T03:22:21;7.97;;;4.35;;
80481;SDS011;69797;43.864;21.410;2023-05-07T03:24:48;8.75;;;3.85;;
80481;SDS011;69797;43.864;21.410;2023-05-07T03:27:15;6.23;;;3.70;;
80481;SDS011;69797;43.864;21.410;2023-05-07T03:29:42;8.75;;;4.32;;
80481;SDS011;69797;43.864;21.410;2023-05-07T03:32:09;5.25;;;3.65;;
80481;SDS011;69797;43.864;21.410;2023-05-07T03:34:35;8.57;;;4.40;;
80481;SDS011;69797;43.864;21.410;2023-05-07T03:37:02;7.45;;;4.35;;
80481;SDS011;69797;43.864;21.410;2023-05-07T03:39:29;8.33;;;4.30;;
80481;SDS011;69797;43.864;21.410;2023-05-07T03:41:57;8.25;;;4.05;;
80481;SDS011;69797;43.864;21.410;2023-05-07T03:44:24;9.13;;;4.25;;
80481;SDS011;69797;43.864;21.410;2023-05-07T03:46:51;9.13;;;4.20;;
80481;SDS011;69797;43.864;21.410;2023-05-07T03:49:18;6.70;;;4.32;;
80481;SDS011;69797;43.864;21.410;2023-05-07T03:51:44;6.13;;;4.23;;
80481;SDS011;69797;43.864;21.410;2023-05-07T03:54:11;8.68;;;4.07;;
80481;SDS011;69797;43.864;21.410;2023-05-07T03:56:38;8.45;;;4.22;;
80481;SDS011;69797;43.864;21.410;2023-05-07T03:59:05;8.30;;;3.70;;
80481;SDS011;69797;43.864;21.410;2023-05-07T04:01:32;7.03;;;3.83;;
80481;SDS011;69797;43.864;21.410;2023-05-07T04:03:58;7.57;;;3.77;;
80481;SDS011;69797;43.864;21.410;2023-05-07T04:06:25;5.55;;;3.85;;
80481;SDS011;69797;43.864;21.410;2023-05-07T04:08:52;6.75;;;4.15;;
80481;SDS011;69797;43.864;21.410;2023-05-07T04:11:19;6.55;;;3.92;;
80481;SDS011;69797;43.864;21.410;2023-05-07T04:13:48;6.03;;;3.85;;
80481;SDS011;69797;43.864;21.410;2023-05-07T04:16:15;6.87;;;4.43;;
80481;SDS011;69797;43.864;21.410;2023-05-07T04:18:42;9.27;;;4.68;;
80481;SDS011;69797;43.864;21.410;2023-05-07T04:21:16;8.98;;;4.10;;
80481;SDS011;69797;43.864;21.410;2023-05-07T04:23:44;6.72;;;3.63;;
80481;SDS011;69797;43.864;21.410;2023-05-07T04:26:11;5.63;;;4.10;;
80481;SDS011;69797;43.864;21.410;2023-05-07T04:28:40;6.83;;;4.20;;
80481;SDS011;69797;43.864;21.410;2023-05-07T04:31:08;5.68;;;3.78;;
80481;SDS011;69797;43.864;21.410;2023-05-07T04:33:35;7.05;;;3.83;;
80481;SDS011;69797;43.864;21.410;2023-05-07T04:36:04;5.57;;;3.72;;
80481;SDS011;69797;43.864;21.410;2023-05-07T04:38:31;7.18;;;4.50;;
80481;SDS011;69797;43.864;21.410;2023-05-07T04:41:02;5.80;;;3.70;;
80481;SDS011;69797;43.864;21.410;2023-05-07T04:43:30;5.25;;;3.90;;
80481;SDS011;69797;43.864;21.410;2023-05-07T04:45:57;10.82;;;5.13;;
80481;SDS011;69797;43.864;21.410;2023-05-07T04:48:23;7.68;;;4.30;;
80481;SDS011;69797;43.864;21.410;2023-05-07T04:50:51;6.20;;;4.38;;
80481;SDS011;69797;43.864;21.410;2023-05-07T04:53:18;8.30;;;4.60;;
80481;SDS011;69797;43.864;21.410;2023-05-07T04:55:45;5.68;;;4.38;;
80481;SDS011;69797;43.864;21.410;2023-05-07T04:58:12;6.25;;;4.18;;
80481;SDS011;69797;43.864;21.410;2023-05-07T05:00:39;6.97;;;3.97;;
80481;SDS011;69797;43.864;21.410;2023-05-07T05:03:06;6.43;;;4.47;;
80481;SDS011;69797;43.864;21.410;2023-05-07T05:05:33;5.77;;;4.40;;
80481;SDS011;69797;43.864;21.410;2023-05-07T05:08:02;7.05;;;5.38;;
80481;SDS011;69797;43.864;21.410;2023-05-07T05:10:29;7.72;;;5.25;;
80481;SDS011;69797;43.864;21.410;2023-05-07T05:12:56;6.85;;;4.50;;
80481;SDS011;69797;43.864;21.410;2023-05-07T05:15:23;6.97;;;4.90;;
80481;SDS011;69797;43.864;21.410;2023-05-07T05:17:49;6.97;;;4.57;;
80481;SDS011;69797;43.864;21.410;2023-05-07T05:20:16;6.25;;;4.68;;
80481;SDS011;69797;43.864;21.410;2023-05-07T05:22:43;5.57;;;4.30;;
80481;SDS011;69797;43.864;21.410;2023-05-07T05:25:10;5.55;;;3.85;;
80481;SDS011;69797;43.864;21.410;2023-05-07T05:27:37;6.50;;;4.50;;
80481;SDS011;69797;43.864;21.410;2023-05-07T05:30:06;5.73;;;3.87;;
80481;SDS011;69797;43.864;21.410;2023-05-07T05:32:34;5.78;;;4.20;;
80481;SDS011;69797;43.864;21.410;2023-05-07T05:35:01;5.25;;;4.40;;
80481;SDS011;69797;43.864;21.410;2023-05-07T05:37:28;6.30;;;4.40;;
80481;SDS011;69797;43.864;21.410;2023-05-07T05:39:56;6.57;;;4.45;;
80481;SDS011;69797;43.864;21.410;2023-05-07T05:42:23;6.50;;;4.67;;
80481;SDS011;69797;43.864;21.410;2023-05-07T05:44:50;5.60;;;4.25;;
80481;SDS011;69797;43.864;21.410;2023-05-07T05:47:16;6.18;;;4.88;;
80481;SDS011;69797;43.864;21.410;2023-05-07T05:49:43;5.55;;;4.80;;
80481;SDS011;69797;43.864;21.410;2023-05-07T05:52:12;5.32;;;4.35;;
80481;SDS011;69797;43.864;21.410;2023-05-07T05:54:40;7.17;;;5.17;;
80481;SDS011;69797;43.864;21.410;2023-05-07T05:57:09;6.55;;;4.38;;
80481;SDS011;69797;43.864;21.410;2023-05-07T05:59:36;5.15;;;4.07;;
80481;SDS011;69797;43.864;21.410;2023-05-07T06:02:03;11.27;;;4.15;;
80481;SDS011;69797;43.864;21.410;2023-05-07T06:04:30;6.22;;;4.43;;
80481;SDS011;69797;43.864;21.410;2023-05-07T06:06:59;4.97;;;4.57;;
80481;SDS011;69797;43.864;21.410;2023-05-07T06:09:26;4.65;;;3.85;;
80481;SDS011;69797;43.864;21.410;2023-05-07T06:11:54;9.68;;;5.20;;
80481;SDS011;69797;43.864;21.410;2023-05-07T06:14:25;4.90;;;4.15;;
80481;SDS011;69797;43.864;21.410;2023-05-07T06:16:51;5.50;;;4.25;;
80481;SDS011;69797;43.864;21.410;2023-05-07T06:19:18;6.47;;;3.90;;
80481;SDS011;69797;43.864;21.410;2023-05-07T06:21:49;5.43;;;3.85;;
80481;SDS011;69797;43.864;21.410;2023-05-07T06:24:16;5.32;;;4.18;;
80481;SDS011;69797;43.864;21.410;2023-05-07T06:26:45;4.40;;;4.00;;
80481;SDS011;69797;43.864;21.410;2023-05-07T06:29:11;5.78;;;4.63;;
80481;SDS011;69797;43.864;21.410;2023-05-07T06:31:38;6.10;;;4.30;;
80481;SDS011;69797;43.864;21.410;2023-05-07T06:34:05;8.15;;;4.82;;
80481;SDS011;69797;43.864;21.410;2023-05-07T06:36:32;6.95;;;5.13;;
80481;SDS011;69797;43.864;21.410;2023-05-07T06:38:59;9.27;;;4.75;;
80481;SDS011;69797;43.864;21.410;2023-05-07T06:41:25;8.23;;;5.63;;
80481;SDS011;69797;43.864;21.410;2023-05-07T06:43:52;9.83;;;5.60;;
80481;SDS011;69797;43.864;21.410;2023-05-07T06:46:19;7.57;;;5.82;;
80481;SDS011;69797;43.864;21.410;2023-05-07T06:48:46;7.70;;;5.40;;
80481;SDS011;69797;43.864;21.410;2023-05-07T06:51:12;5.85;;;5.32;;
80481;SDS011;69797;43.864;21.410;2023-05-07T06:53:39;6.32;;;5.57;;
80481;SDS011;69797;43.864;21.410;2023-05-07T06:56:07;7.73;;;5.57;;
80481;SDS011;69797;43.864;21.410;2023-05-07T06:58:34;5.53;;;4.90;;
80481;SDS011;69797;43.864;21.410;2023-05-07T07:01:00;9.80;;;3.90;;
80481;SDS011;69797;43.864;21.410;2023-05-07T07:03:33;5.43;;;4.20;;
80481;SDS011;69797;43.864;21.410;2023-05-07T07:06:00;6.80;;;5.82;;
80481;SDS011;69797;43.864;21.410;2023-05-07T07:08:28;5.33;;;4.83;;
80481;SDS011;69797;43.864;21.410;2023-05-07T07:10:55;6.68;;;5.13;;
80481;SDS011;69797;43.864;21.410;2023-05-07T07:13:21;5.53;;;5.03;;
80481;SDS011;69797;43.864;21.410;2023-05-07T07:15:51;10.70;;;5.65;;
80481;SDS011;69797;43.864;21.410;2023-05-07T07:18:19;6.53;;;4.97;;
80481;SDS011;69797;43.864;21.410;2023-05-07T07:20:46;6.57;;;4.80;;
80481;SDS011;69797;43.864;21.410;2023-05-07T07:23:13;7.75;;;4.88;;
80481;SDS011;69797;43.864;21.410;2023-05-07T07:25:40;8.40;;;4.95;;
80481;SDS011;69797;43.864;21.410;2023-05-07T07:28:09;5.93;;;4.70;;
80481;SDS011;69797;43.864;21.410;2023-05-07T07:30:37;11.43;;;5.93;;
80481;SDS011;69797;43.864;21.410;2023-05-07T07:33:06;5.30;;;4.83;;
80481;SDS011;69797;43.864;21.410;2023-05-07T07:35:33;7.22;;;5.32;;
80481;SDS011;69797;43.864;21.410;2023-05-07T07:38:00;6.38;;;5.78;;
80481;SDS011;69797;43.864;21.410;2023-05-07T07:40:27;7.15;;;5.40;;
80481;SDS011;69797;43.864;21.410;2023-05-07T07:42:54;6.65;;;6.05;;
80481;SDS011;69797;43.864;21.410;2023-05-07T07:45:27;9.27;;;6.10;;
80481;SDS011;69797;43.864;21.410;2023-05-07T07:47:54;6.70;;;5.30;;
80481;SDS011;69797;43.864;21.410;2023-05-07T07:50:21;6.38;;;5.72;;
80481;SDS011;69797;43.864;21.410;2023-05-07T07:53:08;5.95;;;5.38;;
80481;SDS011;69797;43.864;21.410;2023-05-07T07:55:38;7.50;;;6.22;;
80481;SDS011;69797;43.864;21.410;2023-05-07T07:58:06;7.33;;;6.63;;
80481;SDS011;69797;43.864;21.410;2023-05-07T08:00:33;8.05;;;6.22;;
80481;SDS011;69797;43.864;21.410;2023-05-07T08:02:59;7.03;;;6.30;;
80481;SDS011;69797;43.864;21.410;2023-05-07T08:05:27;7.20;;;6.60;;
80481;SDS011;69797;43.864;21.410;2023-05-07T08:07:54;6.82;;;6.13;;
80481;SDS011;69797;43.864;21.410;2023-05-07T08:10:21;6.70;;;6.10;;
80481;SDS011;69797;43.864;21.410;2023-05-07T08:12:48;6.85;;;6.15;;
80481;SDS011;69797;43.864;21.410;2023-05-07T08:15:16;7.15;;;6.53;;
80481;SDS011;69797;43.864;21.410;2023-05-07T08:17:43;6.60;;;5.90;;
80481;SDS011;69797;43.864;21.410;2023-05-07T08:20:10;6.82;;;6.15;;
80481;SDS011;69797;43.864;21.410;2023-05-07T08:22:37;9.30;;;8.20;;
80481;SDS011;69797;43.864;21.410;2023-05-07T08:25:04;8.52;;;6.43;;
80481;SDS011;69797;43.864;21.410;2023-05-07T08:27:31;7.30;;;6.60;;
80481;SDS011;69797;43.864;21.410;2023-05-07T08:29:58;7.43;;;6.72;;
80481;SDS011;69797;43.864;21.410;2023-05-07T08:32:25;6.95;;;5.30;;
80481;SDS011;69797;43.864;21.410;2023-05-07T08:34:54;8.33;;;7.63;;
80481;SDS011;69797;43.864;21.410;2023-05-07T08:37:21;7.00;;;6.30;;
80481;SDS011;69797;43.864;21.410;2023-05-07T08:39:47;8.10;;;7.38;;
80481;SDS011;69797;43.864;21.410;2023-05-07T08:42:15;7.15;;;6.40;;
80481;SDS011;69797;43.864;21.410;2023-05-07T08:44:44;8.00;;;7.20;;
80481;SDS011;69797;43.864;21.410;2023-05-07T08:47:15;7.97;;;7.17;;
80481;SDS011;69797;43.864;21.410;2023-05-07T08:49:42;7.18;;;6.47;;
80481;SDS011;69797;43.864;21.410;2023-05-07T08:52:11;7.78;;;7.05;;
80481;SDS011;69797;43.864;21.410;2023-05-07T08:54:38;8.38;;;6.90;;
80481;SDS011;69797;43.864;21.410;2023-05-07T08:57:05;6.63;;;5.97;;
80481;SDS011;69797;43.864;21.410;2023-05-07T08:59:32;6.80;;;6.17;;
80481;SDS011;69797;43.864;21.410;2023-05-07T09:01:59;7.45;;;6.75;;
80481;SDS011;69797;43.864;21.410;2023-05-07T09:04:26;7.20;;;6.70;;
80481;SDS011;69797;43.864;21.410;2023-05-07T09:06:53;8.57;;;7.88;;
80481;SDS011;69797;43.864;21.410;2023-05-07T09:09:21;6.93;;;6.32;;
80481;SDS011;69797;43.864;21.410;2023-05-07T09:11:48;4.93;;;4.07;;
80481;SDS011;69797;43.864;21.410;2023-05-07T09:14:15;5.65;;;3.75;;
80481;SDS011;69797;43.864;21.410;2023-05-07T09:16:41;4.53;;;3.47;;
80481;SDS011;69797;43.864;21.410;2023-05-07T09:19:08;5.82;;;3.95;;
80481;SDS011;69797;43.864;21.410;2023-05-07T09:21:35;5.63;;;3.50;;
80481;SDS011;69797;43.864;21.410;2023-05-07T09:24:02;4.27;;;3.23;;
80481;SDS011;69797;43.864;21.410;2023-05-07T09:26:29;5.05;;;3.60;;
80481;SDS011;69797;43.864;21.410;2023-05-07T09:28:57;7.07;;;3.92;;
80481;SDS011;69797;43.864;21.410;2023-05-07T09:31:24;5.47;;;3.22;;
80481;SDS011;69797;43.864;21.410;2023-05-07T09:33:53;6.80;;;3.42;;
80481;SDS011;69797;43.864;21.410;2023-05-07T09:36:22;6.60;;;3.10;;
80481;SDS011;69797;43.864;21.410;2023-05-07T09:38:49;7.47;;;4.10;;
80481;SDS011;69797;43.864;21.410;2023-05-07T09:41:17;6.93;;;3.63;;
80481;SDS011;69797;43.864;21.410;2023-05-07T09:43:45;4.65;;;3.30;;
80481;SDS011;69797;43.864;21.410;2023-05-07T09:46:13;6.28;;;3.60;;
80481;SDS011;69797;43.864;21.410;2023-05-07T09:48:41;5.37;;;3.43;;
80481;SDS011;69797;43.864;21.410;2023-05-07T09:51:45;8.30;;;3.58;;
80481;SDS011;69797;43.864;21.410;2023-05-07T09:54:28;6.80;;;3.28;;
80481;SDS011;69797;43.864;21.410;2023-05-07T09:56:55;6.45;;;3.45;;
80481;SDS011;69797;43.864;21.410;2023-05-07T09:59:23;6.82;;;3.47;;
80481;SDS011;69797;43.864;21.410;2023-05-07T10:01:56;6.73;;;2.90;;
80481;SDS011;69797;43.864;21.410;2023-05-07T10:04:26;4.40;;;2.92;;
80481;SDS011;69797;43.864;21.410;2023-05-07T10:06:56;4.43;;;3.00;;
80481;SDS011;69797;43.864;21.410;2023-05-07T10:09:23;5.38;;;3.85;;
80481;SDS011;69797;43.864;21.410;2023-05-07T10:11:52;4.32;;;3.08;;
80481;SDS011;69797;43.864;21.410;2023-05-07T10:14:20;4.50;;;3.43;;
80481;SDS011;69797;43.864;21.410;2023-05-07T10:16:47;5.65;;;3.15;;
80481;SDS011;69797;43.864;21.410;2023-05-07T10:19:14;5.45;;;4.05;;
80481;SDS011;69797;43.864;21.410;2023-05-07T10:21:44;8.32;;;4.13;;
80481;SDS011;69797;43.864;21.410;2023-05-07T10:26:52;5.70;;;3.40;;
80481;SDS011;69797;43.864;21.410;2023-05-07T10:35:10;5.70;;;3.60;;
80481;SDS011;69797;43.864;21.410;2023-05-07T10:37:44;8.63;;;3.78;;
80481;SDS011;69797;43.864;21.410;2023-05-07T10:40:11;5.47;;;4.27;;
80481;SDS011;69797;43.864;21.410;2023-05-07T10:43:00;6.40;;;3.25;;
80481;SDS011;69797;43.864;21.410;2023-05-07T10:45:32;5.50;;;3.80;;
80481;SDS011;69797;43.864;21.410;2023-05-07T10:51:17;4.80;;;2.80;;
80481;SDS011;69797;43.864;21.410;2023-05-07T10:53:46;8.10;;;3.13;;
80481;SDS011;69797;43.864;21.410;2023-05-07T10:58:46;7.07;;;3.38;;
80481;SDS011;69797;43.864;21.410;2023-05-07T11:01:13;5.13;;;3.00;;
80481;SDS011;69797;43.864;21.410;2023-05-07T11:04:12;3.83;;;2.75;;
80481;SDS011;69797;43.864;21.410;2023-05-07T11:07:08;5.07;;;2.87;;
80481;SDS011;69797;43.864;21.410;2023-05-07T11:17:31;5.68;;;3.00;;
80481;SDS011;69797;43.864;21.410;2023-05-07T11:20:02;5.23;;;2.97;;
80481;SDS011;69797;43.864;21.410;2023-05-07T11:25:02;11.60;;;4.03;;
80481;SDS011;69797;43.864;21.410;2023-05-07T11:27:29;7.75;;;3.78;;
80481;SDS011;69797;43.864;21.410;2023-05-07T11:29:56;10.82;;;4.47;;
80481;SDS011;69797;43.864;21.410;2023-05-07T11:32:26;20.77;;;7.47;;
80481;SDS011;69797;43.864;21.410;2023-05-07T11:34:58;14.00;;;6.57;;
80481;SDS011;69797;43.864;21.410;2023-05-07T11:37:26;7.05;;;4.38;;
80481;SDS011;69797;43.864;21.410;2023-05-07T11:40:05;10.68;;;5.78;;
80481;SDS011;69797;43.864;21.410;2023-05-07T11:42:35;13.02;;;6.45;;
80481;SDS011;69797;43.864;21.410;2023-05-07T11:45:04;5.47;;;3.03;;
80481;SDS011;69797;43.864;21.410;2023-05-07T11:47:32;4.72;;;3.03;;
80481;SDS011;69797;43.864;21.410;2023-05-07T11:50:04;9.10;;;5.55;;
80481;SDS011;69797;43.864;21.410;2023-05-07T11:52:33;4.95;;;2.63;;
80481;SDS011;69797;43.864;21.410;2023-05-07T11:55:01;8.23;;;4.20;;
80481;SDS011;69797;43.864;21.410;2023-05-07T11:57:29;5.37;;;3.10;;
80481;SDS011;69797;43.864;21.410;2023-05-07T11:59:57;5.18;;;3.10;;
80481;SDS011;69797;43.864;21.410;2023-05-07T12:02:25;4.38;;;3.20;;
80481;SDS011;69797;43.864;21.410;2023-05-07T12:04:52;4.43;;;2.10;;
80481;SDS011;69797;43.864;21.410;2023-05-07T12:07:19;5.90;;;3.00;;
80481;SDS011;69797;43.864;21.410;2023-05-07T12:09:47;5.33;;;2.40;;
80481;SDS011;69797;43.864;21.410;2023-05-07T12:12:17;3.42;;;2.38;;
80481;SDS011;69797;43.864;21.410;2023-05-07T12:14:50;4.88;;;3.10;;
80481;SDS011;69797;43.864;21.410;2023-05-07T12:17:17;7.72;;;3.60;;
80481;SDS011;69797;43.864;21.410;2023-05-07T12:19:44;6.10;;;3.63;;
80481;SDS011;69797;43.864;21.410;2023-05-07T12:22:12;6.20;;;3.10;;
80481;SDS011;69797;43.864;21.410;2023-05-07T12:24:44;5.85;;;3.38;;
80481;SDS011;69797;43.864;21.410;2023-05-07T12:27:11;4.03;;;2.78;;
80481;SDS011;69797;43.864;21.410;2023-05-07T12:29:44;3.95;;;2.60;;
80481;SDS011;69797;43.864;21.410;2023-05-07T12:32:15;7.75;;;3.75;;
80481;SDS011;69797;43.864;21.410;2023-05-07T12:34:49;5.83;;;3.50;;
80481;SDS011;69797;43.864;21.410;2023-05-07T12:37:23;7.10;;;4.22;;
80481;SDS011;69797;43.864;21.410;2023-05-07T12:42:52;6.88;;;2.95;;
80481;SDS011;69797;43.864;21.410;2023-05-07T12:45:21;5.22;;;2.95;;
80481;SDS011;69797;43.864;21.410;2023-05-07T12:47:48;7.60;;;3.50;;
80481;SDS011;69797;43.864;21.410;2023-05-07T12:50:20;6.45;;;3.83;;
80481;SDS011;69797;43.864;21.410;2023-05-07T12:52:50;11.50;;;5.88;;
80481;SDS011;69797;43.864;21.410;2023-05-07T12:55:17;11.60;;;5.20;;
80481;SDS011;69797;43.864;21.410;2023-05-07T12:57:50;8.10;;;4.57;;
80481;SDS011;69797;43.864;21.410;2023-05-07T13:00:17;10.03;;;5.00;;
80481;SDS011;69797;43.864;21.410;2023-05-07T13:02:58;7.47;;;4.65;;
80481;SDS011;69797;43.864;21.410;2023-05-07T13:05:25;8.20;;;4.75;;
80481;SDS011;69797;43.864;21.410;2023-05-07T13:07:52;5.55;;;3.67;;
80481;SDS011;69797;43.864;21.410;2023-05-07T13:10:22;7.78;;;4.75;;
80481;SDS011;69797;43.864;21.410;2023-05-07T13:12:49;7.40;;;3.63;;
80481;SDS011;69797;43.864;21.410;2023-05-07T13:15:17;6.05;;;3.35;;
80481;SDS011;69797;43.864;21.410;2023-05-07T13:17:44;6.70;;;3.88;;
80481;SDS011;69797;43.864;21.410;2023-05-07T13:20:11;4.72;;;3.08;;
80481;SDS011;69797;43.864;21.410;2023-05-07T13:22:39;7.32;;;4.10;;
80481;SDS011;69797;43.864;21.410;2023-05-07T13:25:06;6.03;;;3.50;;
80481;SDS011;69797;43.864;21.410;2023-05-07T13:27:33;6.25;;;3.58;;
80481;SDS011;69797;43.864;21.410;2023-05-07T13:30:04;6.75;;;4.47;;
80481;SDS011;69797;43.864;21.410;2023-05-07T13:32:31;10.85;;;5.63;;
80481;SDS011;69797;43.864;21.410;2023-05-07T13:34:58;9.68;;;5.38;;
80481;SDS011;69797;43.864;21.410;2023-05-07T13:37:25;8.37;;;4.73;;
80481;SDS011;69797;43.864;21.410;2023-05-07T13:39:52;7.45;;;4.68;;
80481;SDS011;69797;43.864;21.410;2023-05-07T13:42:19;6.22;;;3.50;;
80481;SDS011;69797;43.864;21.410;2023-05-07T13:44:46;3.47;;;2.08;;
80481;SDS011;69797;43.864;21.410;2023-05-07T13:47:12;4.80;;;3.25;;
80481;SDS011;69797;43.864;21.410;2023-05-07T13:49:39;4.47;;;3.07;;
80481;SDS011;69797;43.864;21.410;2023-05-07T13:52:06;5.53;;;2.30;;
80481;SDS011;69797;43.864;21.410;2023-05-07T13:54:33;4.03;;;2.60;;
80481;SDS011;69797;43.864;21.410;2023-05-07T13:56:59;4.22;;;2.22;;
80481;SDS011;69797;43.864;21.410;2023-05-07T13:59:26;4.80;;;2.80;;
80481;SDS011;69797;43.864;21.410;2023-05-07T14:01:53;4.57;;;2.40;;
80481;SDS011;69797;43.864;21.410;2023-05-07T14:04:21;5.00;;;2.80;;
80481;SDS011;69797;43.864;21.410;2023-05-07T14:06:47;4.18;;;3.03;;
80481;SDS011;69797;43.864;21.410;2023-05-07T14:09:14;5.90;;;2.60;;
80481;SDS011;69797;43.864;21.410;2023-05-07T14:11:43;4.93;;;3.13;;
80481;SDS011;69797;43.864;21.410;2023-05-07T14:14:13;4.80;;;2.87;;
80481;SDS011;69797;43.864;21.410;2023-05-07T14:16:40;3.42;;;2.38;;
80481;SDS011;69797;43.864;21.410;2023-05-07T14:19:07;4.07;;;2.33;;
80481;SDS011;69797;43.864;21.410;2023-05-07T14:21:36;3.97;;;2.15;;
80481;SDS011;69797;43.864;21.410;2023-05-07T14:24:03;4.05;;;2.35;;
80481;SDS011;69797;43.864;21.410;2023-05-07T14:26:32;3.90;;;2.27;;
80481;SDS011;69797;43.864;21.410;2023-05-07T14:28:59;6.05;;;2.47;;
80481;SDS011;69797;43.864;21.410;2023-05-07T14:31:29;4.03;;;2.20;;
80481;SDS011;69797;43.864;21.410;2023-05-07T14:33:56;5.25;;;2.40;;
80481;SDS011;69797;43.864;21.410;2023-05-07T14:36:24;3.80;;;2.65;;
80481;SDS011;69797;43.864;21.410;2023-05-07T14:38:56;4.03;;;2.70;;
80481;SDS011;69797;43.864;21.410;2023-05-07T14:41:25;2.95;;;2.08;;
80481;SDS011;69797;43.864;21.410;2023-05-07T14:43:52;3.80;;;2.45;;
80481;SDS011;69797;43.864;21.410;2023-05-07T14:46:19;3.40;;;2.00;;
80481;SDS011;69797;43.864;21.410;2023-05-07T14:48:46;3.40;;;2.25;;
80481;SDS011;69797;43.864;21.410;2023-05-07T14:51:13;5.27;;;2.80;;
80481;SDS011;69797;43.864;21.410;2023-05-07T14:53:40;4.28;;;3.10;;
80481;SDS011;69797;43.864;21.410;2023-05-07T14:56:08;4.53;;;2.80;;
80481;SDS011;69797;43.864;21.410;2023-05-07T14:58:35;4.60;;;2.95;;
80481;SDS011;69797;43.864;21.410;2023-05-07T15:01:02;6.68;;;3.40;;
80481;SDS011;69797;43.864;21.410;2023-05-07T15:03:35;3.53;;;2.30;;
80481;SDS011;69797;43.864;21.410;2023-05-07T15:06:02;3.63;;;2.38;;